sensor_id;sensor_type;location;lat;lon;timestamp;temperature;humidity
50969;DHT22;36982;51.474;7.228;2024-03-06T00:02:22;6.40;99.90
50969;DHT22;36982;51.474;7.228;2024-03-06T00:04:48;6.40;99.90
50969;DHT22;36982;51.474;7.228;2024-03-06T00:07:13;6.30;99.90
50969;DHT22;36982;51.474;7.228;2024-03-06T00:09:39;6.30;99.90
50969;DHT22;36982;51.474;7.228;2024-03-06T00:12:04;6.30;99.90
50969;DHT22;36982;51.474;7.228;2024-03-06T00:14:31;6.30;99.90
50969;DHT22;36982;51.474;7.228;2024-03-06T00:16:57;6.30;99.90
50969;DHT22;36982;51.474;7.228;2024-03-06T00:19:22;6.10;99.90
50969;DHT22;36982;51.474;7.228;2024-03-06T00:21:48;5.90;99.90
50969;DHT22;36982;51.474;7.228;2024-03-06T00:24:15;5.80;99.90
50969;DHT22;36982;51.474;7.228;2024-03-06T00:26:41;5.80;99.90
50969;DHT22;36982;51.474;7.228;2024-03-06T00:29:08;5.80;99.90
50969;DHT22;36982;51.474;7.228;2024-03-06T00:31:34;5.80;99.90
50969;DHT22;36982;51.474;7.228;2024-03-06T00:34:00;5.70;99.90
50969;DHT22;36982;51.474;7.228;2024-03-06T00:36:25;5.70;99.90
50969;DHT22;36982;51.474;7.228;2024-03-06T00:38:51;5.70;99.90
50969;DHT22;36982;51.474;7.228;2024-03-06T00:41:16;5.60;99.90
50969;DHT22;36982;51.474;7.228;2024-03-06T00:43:42;5.60;99.90
50969;DHT22;36982;51.474;7.228;2024-03-06T00:46:07;5.60;99.90
50969;DHT22;36982;51.474;7.228;2024-03-06T00:48:33;5.60;99.90
50969;DHT22;36982;51.474;7.228;2024-03-06T00:50:59;5.50;99.90
50969;DHT22;36982;51.474;7.228;2024-03-06T00:53:24;5.40;99.90
50969;DHT22;36982;51.474;7.228;2024-03-06T00:58:17;5.10;99.90
50969;DHT22;36982;51.474;7.228;2024-03-06T01:00:43;5.10;99.90
50969;DHT22;36982;51.474;7.228;2024-03-06T01:03:09;5.10;99.90
50969;DHT22;36982;51.474;7.228;2024-03-06T01:05:34;5.10;99.90
50969;DHT22;36982;51.474;7.228;2024-03-06T01:08:00;5.10;99.90
50969;DHT22;36982;51.474;7.228;2024-03-06T01:10:26;5.20;99.90
50969;DHT22;36982;51.474;7.228;2024-03-06T01:12:51;5.10;99.90
50969;DHT22;36982;51.474;7.228;2024-03-06T01:15:17;5.10;99.90
50969;DHT22;36982;51.474;7.228;2024-03-06T01:17:42;5.10;99.90
50969;DHT22;36982;51.474;7.228;2024-03-06T01:20:08;5.10;99.90
50969;DHT22;36982;51.474;7.228;2024-03-06T01:22:34;5.10;99.90
50969;DHT22;36982;51.474;7.228;2024-03-06T01:25:00;5.10;99.90
50969;DHT22;36982;51.474;7.228;2024-03-06T01:27:26;5.00;99.90
50969;DHT22;36982;51.474;7.228;2024-03-06T01:29:52;5.00;99.90
50969;DHT22;36982;51.474;7.228;2024-03-06T01:32:18;4.90;99.90
50969;DHT22;36982;51.474;7.228;2024-03-06T01:34:43;5.00;99.90
50969;DHT22;36982;51.474;7.228;2024-03-06T01:37:09;5.00;99.90
50969;DHT22;36982;51.474;7.228;2024-03-06T01:39:34;5.00;99.90
50969;DHT22;36982;51.474;7.228;2024-03-06T01:42:01;5.00;99.90
50969;DHT22;36982;51.474;7.228;2024-03-06T01:44:27;5.00;99.90
50969;DHT22;36982;51.474;7.228;2024-03-06T01:46:53;5.00;99.90
50969;DHT22;36982;51.474;7.228;2024-03-06T01:49:19;4.90;99.90
50969;DHT22;36982;51.474;7.228;2024-03-06T01:51:51;4.90;99.90
50969;DHT22;36982;51.474;7.228;2024-03-06T01:54:17;4.90;99.90
50969;DHT22;36982;51.474;7.228;2024-03-06T01:56:46;4.90;99.90
50969;DHT22;36982;51.474;7.228;2024-03-06T01:59:13;4.90;99.90
50969;DHT22;36982;51.474;7.228;2024-03-06T02:01:40;5.00;99.90
50969;DHT22;36982;51.474;7.228;2024-03-06T02:04:09;4.70;99.90
50969;DHT22;36982;51.474;7.228;2024-03-06T02:06:38;4.70;99.90
50969;DHT22;36982;51.474;7.228;2024-03-06T02:09:04;4.70;99.90
50969;DHT22;36982;51.474;7.228;2024-03-06T02:11:29;4.70;99.90
50969;DHT22;36982;51.474;7.228;2024-03-06T02:13:55;4.80;99.90
50969;DHT22;36982;51.474;7.228;2024-03-06T02:16:21;4.70;99.90
50969;DHT22;36982;51.474;7.228;2024-03-06T02:19:05;4.80;99.90
50969;DHT22;36982;51.474;7.228;2024-03-06T02:21:31;4.70;99.90
50969;DHT22;36982;51.474;7.228;2024-03-06T02:23:56;4.80;99.90
50969;DHT22;36982;51.474;7.228;2024-03-06T02:26:22;4.80;99.90
50969;DHT22;36982;51.474;7.228;2024-03-06T02:28:53;4.80;99.90
50969;DHT22;36982;51.474;7.228;2024-03-06T02:31:19;4.80;99.90
50969;DHT22;36982;51.474;7.228;2024-03-06T02:33:49;4.70;99.90
50969;DHT22;36982;51.474;7.228;2024-03-06T02:36:15;4.80;99.90
50969;DHT22;36982;51.474;7.228;2024-03-06T02:38:42;4.80;99.90
50969;DHT22;36982;51.474;7.228;2024-03-06T02:41:09;4.80;99.90
50969;DHT22;36982;51.474;7.228;2024-03-06T02:43:34;4.70;99.90
50969;DHT22;36982;51.474;7.228;2024-03-06T02:46:00;4.80;99.90
50969;DHT22;36982;51.474;7.228;2024-03-06T02:48:26;4.80;99.90
50969;DHT22;36982;51.474;7.228;2024-03-06T02:50:52;4.80;99.90
50969;DHT22;36982;51.474;7.228;2024-03-06T02:53:17;4.70;99.90
50969;DHT22;36982;51.474;7.228;2024-03-06T02:55:43;4.60;99.90
50969;DHT22;36982;51.474;7.228;2024-03-06T02:58:08;4.60;99.90
50969;DHT22;36982;51.474;7.228;2024-03-06T03:00:34;4.60;99.90
50969;DHT22;36982;51.474;7.228;2024-03-06T03:03:00;4.60;99.90
50969;DHT22;36982;51.474;7.228;2024-03-06T03:05:25;4.60;99.90
50969;DHT22;36982;51.474;7.228;2024-03-06T03:07:51;4.50;99.90
50969;DHT22;36982;51.474;7.228;2024-03-06T03:10:17;4.50;99.90
50969;DHT22;36982;51.474;7.228;2024-03-06T03:12:42;4.40;99.90
50969;DHT22;36982;51.474;7.228;2024-03-06T03:15:09;4.40;99.90
50969;DHT22;36982;51.474;7.228;2024-03-06T03:17:35;4.30;99.90
50969;DHT22;36982;51.474;7.228;2024-03-06T03:20:01;4.30;99.90
50969;DHT22;36982;51.474;7.228;2024-03-06T03:22:41;4.20;99.90
50969;DHT22;36982;51.474;7.228;2024-03-06T03:25:11;4.30;99.90
50969;DHT22;36982;51.474;7.228;2024-03-06T03:27:38;4.20;99.90
50969;DHT22;36982;51.474;7.228;2024-03-06T03:30:08;4.10;99.90
50969;DHT22;36982;51.474;7.228;2024-03-06T03:32:34;4.10;99.90
50969;DHT22;36982;51.474;7.228;2024-03-06T03:35:00;4.10;99.90
50969;DHT22;36982;51.474;7.228;2024-03-06T03:37:25;4.20;99.90
50969;DHT22;36982;51.474;7.228;2024-03-06T03:39:51;4.20;99.90
50969;DHT22;36982;51.474;7.228;2024-03-06T03:42:16;4.20;99.90
50969;DHT22;36982;51.474;7.228;2024-03-06T03:44:42;4.30;99.90
50969;DHT22;36982;51.474;7.228;2024-03-06T03:47:07;4.40;99.90
50969;DHT22;36982;51.474;7.228;2024-03-06T03:49:33;4.40;99.90
50969;DHT22;36982;51.474;7.228;2024-03-06T03:51:59;4.50;99.90
50969;DHT22;36982;51.474;7.228;2024-03-06T03:54:24;4.60;99.90
50969;DHT22;36982;51.474;7.228;2024-03-06T03:56:50;4.50;99.90
50969;DHT22;36982;51.474;7.228;2024-03-06T03:59:16;4.50;99.90
50969;DHT22;36982;51.474;7.228;2024-03-06T04:01:41;4.50;99.90
50969;DHT22;36982;51.474;7.228;2024-03-06T04:04:07;4.50;99.90
50969;DHT22;36982;51.474;7.228;2024-03-06T04:06:33;4.70;99.90
50969;DHT22;36982;51.474;7.228;2024-03-06T04:08:59;4.70;99.90
50969;DHT22;36982;51.474;7.228;2024-03-06T04:11:24;4.70;99.90
50969;DHT22;36982;51.474;7.228;2024-03-06T04:13:50;4.80;99.90
50969;DHT22;36982;51.474;7.228;2024-03-06T04:16:17;4.80;99.90
50969;DHT22;36982;51.474;7.228;2024-03-06T04:18:43;4.70;99.90
50969;DHT22;36982;51.474;7.228;2024-03-06T04:21:09;4.70;99.90
50969;DHT22;36982;51.474;7.228;2024-03-06T04:23:35;4.50;99.90
50969;DHT22;36982;51.474;7.228;2024-03-06T04:26:02;4.80;99.90
50969;DHT22;36982;51.474;7.228;2024-03-06T04:28:29;4.90;99.90
50969;DHT22;36982;51.474;7.228;2024-03-06T04:30:55;4.90;99.90
50969;DHT22;36982;51.474;7.228;2024-03-06T04:33:20;5.10;99.90
50969;DHT22;36982;51.474;7.228;2024-03-06T04:35:46;4.90;99.90
50969;DHT22;36982;51.474;7.228;2024-03-06T04:38:12;5.10;99.90
50969;DHT22;36982;51.474;7.228;2024-03-06T04:40:37;5.00;99.90
50969;DHT22;36982;51.474;7.228;2024-03-06T04:43:03;5.00;99.90
50969;DHT22;36982;51.474;7.228;2024-03-06T04:45:29;5.10;99.90
50969;DHT22;36982;51.474;7.228;2024-03-06T04:47:55;5.10;99.90
50969;DHT22;36982;51.474;7.228;2024-03-06T04:50:20;5.20;99.90
50969;DHT22;36982;51.474;7.228;2024-03-06T04:52:46;5.30;99.90
50969;DHT22;36982;51.474;7.228;2024-03-06T04:55:12;5.40;99.90
50969;DHT22;36982;51.474;7.228;2024-03-06T04:57:42;5.50;99.90
50969;DHT22;36982;51.474;7.228;2024-03-06T05:00:08;5.40;99.90
50969;DHT22;36982;51.474;7.228;2024-03-06T05:02:34;5.30;99.90
50969;DHT22;36982;51.474;7.228;2024-03-06T05:05:01;5.20;99.90
50969;DHT22;36982;51.474;7.228;2024-03-06T05:07:31;5.00;99.90
50969;DHT22;36982;51.474;7.228;2024-03-06T05:09:57;5.00;99.90
50969;DHT22;36982;51.474;7.228;2024-03-06T05:12:24;5.20;99.90
50969;DHT22;36982;51.474;7.228;2024-03-06T05:14:51;5.10;99.90
50969;DHT22;36982;51.474;7.228;2024-03-06T05:17:17;5.10;99.90
50969;DHT22;36982;51.474;7.228;2024-03-06T05:19:43;5.20;99.90
50969;DHT22;36982;51.474;7.228;2024-03-06T05:22:10;5.30;99.90
50969;DHT22;36982;51.474;7.228;2024-03-06T05:24:37;5.20;99.90
50969;DHT22;36982;51.474;7.228;2024-03-06T05:27:02;5.20;99.90
50969;DHT22;36982;51.474;7.228;2024-03-06T05:29:28;5.20;99.90
50969;DHT22;36982;51.474;7.228;2024-03-06T05:31:53;5.30;99.90
50969;DHT22;36982;51.474;7.228;2024-03-06T05:34:21;5.20;99.90
50969;DHT22;36982;51.474;7.228;2024-03-06T05:36:47;5.00;99.90
50969;DHT22;36982;51.474;7.228;2024-03-06T05:39:13;4.80;99.90
50969;DHT22;36982;51.474;7.228;2024-03-06T05:41:39;4.80;99.90
50969;DHT22;36982;51.474;7.228;2024-03-06T05:44:06;4.90;99.90
50969;DHT22;36982;51.474;7.228;2024-03-06T05:46:32;4.90;99.90
50969;DHT22;36982;51.474;7.228;2024-03-06T05:48:58;4.90;99.90
50969;DHT22;36982;51.474;7.228;2024-03-06T05:51:23;4.90;99.90
50969;DHT22;36982;51.474;7.228;2024-03-06T05:53:49;4.80;99.90
50969;DHT22;36982;51.474;7.228;2024-03-06T05:56:14;4.80;99.90
50969;DHT22;36982;51.474;7.228;2024-03-06T05:58:40;4.80;99.90
50969;DHT22;36982;51.474;7.228;2024-03-06T06:01:05;4.80;99.90
50969;DHT22;36982;51.474;7.228;2024-03-06T06:03:31;4.80;99.90
50969;DHT22;36982;51.474;7.228;2024-03-06T06:05:57;4.80;99.90
50969;DHT22;36982;51.474;7.228;2024-03-06T06:08:24;4.90;99.90
50969;DHT22;36982;51.474;7.228;2024-03-06T06:10:49;4.90;99.90
50969;DHT22;36982;51.474;7.228;2024-03-06T06:13:17;4.90;99.90
50969;DHT22;36982;51.474;7.228;2024-03-06T06:15:43;4.80;99.90
50969;DHT22;36982;51.474;7.228;2024-03-06T06:18:08;4.70;99.90
50969;DHT22;36982;51.474;7.228;2024-03-06T06:20:34;4.70;99.90
50969;DHT22;36982;51.474;7.228;2024-03-06T06:23:00;4.70;99.90
50969;DHT22;36982;51.474;7.228;2024-03-06T06:25:25;4.60;99.90
50969;DHT22;36982;51.474;7.228;2024-03-06T06:27:51;4.50;99.90
50969;DHT22;36982;51.474;7.228;2024-03-06T06:30:17;4.50;99.90
50969;DHT22;36982;51.474;7.228;2024-03-06T06:32:43;4.60;99.90
50969;DHT22;36982;51.474;7.228;2024-03-06T06:35:09;4.60;99.90
50969;DHT22;36982;51.474;7.228;2024-03-06T06:37:35;4.50;99.90
50969;DHT22;36982;51.474;7.228;2024-03-06T06:40:01;4.40;99.90
50969;DHT22;36982;51.474;7.228;2024-03-06T06:42:32;4.40;99.90
50969;DHT22;36982;51.474;7.228;2024-03-06T06:44:59;4.40;99.90
50969;DHT22;36982;51.474;7.228;2024-03-06T06:47:24;4.30;99.90
50969;DHT22;36982;51.474;7.228;2024-03-06T06:49:50;4.30;99.90
50969;DHT22;36982;51.474;7.228;2024-03-06T06:52:16;4.40;99.90
50969;DHT22;36982;51.474;7.228;2024-03-06T06:54:42;4.40;99.90
50969;DHT22;36982;51.474;7.228;2024-03-06T06:57:08;4.50;99.90
50969;DHT22;36982;51.474;7.228;2024-03-06T06:59:34;4.60;99.90
50969;DHT22;36982;51.474;7.228;2024-03-06T07:02:00;4.70;99.90
50969;DHT22;36982;51.474;7.228;2024-03-06T07:04:25;4.60;99.90
50969;DHT22;36982;51.474;7.228;2024-03-06T07:06:51;4.60;99.90
50969;DHT22;36982;51.474;7.228;2024-03-06T07:09:17;4.70;99.90
50969;DHT22;36982;51.474;7.228;2024-03-06T07:11:43;4.70;99.90
50969;DHT22;36982;51.474;7.228;2024-03-06T07:14:10;4.70;99.90
50969;DHT22;36982;51.474;7.228;2024-03-06T07:16:44;4.70;99.90
50969;DHT22;36982;51.474;7.228;2024-03-06T07:19:11;4.90;99.90
50969;DHT22;36982;51.474;7.228;2024-03-06T07:21:36;5.00;99.90
50969;DHT22;36982;51.474;7.228;2024-03-06T07:24:03;5.10;99.90
50969;DHT22;36982;51.474;7.228;2024-03-06T07:26:31;5.20;99.90
50969;DHT22;36982;51.474;7.228;2024-03-06T07:28:57;5.30;99.90
50969;DHT22;36982;51.474;7.228;2024-03-06T07:31:23;5.40;99.90
50969;DHT22;36982;51.474;7.228;2024-03-06T07:33:49;5.50;99.90
50969;DHT22;36982;51.474;7.228;2024-03-06T07:36:15;5.60;99.90
50969;DHT22;36982;51.474;7.228;2024-03-06T07:38:42;5.60;99.90
50969;DHT22;36982;51.474;7.228;2024-03-06T07:41:07;5.70;99.90
50969;DHT22;36982;51.474;7.228;2024-03-06T07:43:33;5.80;99.90
50969;DHT22;36982;51.474;7.228;2024-03-06T07:45:58;5.80;99.90
50969;DHT22;36982;51.474;7.228;2024-03-06T07:48:24;5.90;99.90
50969;DHT22;36982;51.474;7.228;2024-03-06T07:50:50;6.00;99.90
50969;DHT22;36982;51.474;7.228;2024-03-06T07:53:15;6.10;99.90
50969;DHT22;36982;51.474;7.228;2024-03-06T07:55:41;6.10;99.90
50969;DHT22;36982;51.474;7.228;2024-03-06T07:58:07;6.10;99.90
50969;DHT22;36982;51.474;7.228;2024-03-06T08:00:36;6.10;99.90
50969;DHT22;36982;51.474;7.228;2024-03-06T08:03:01;6.20;99.90
50969;DHT22;36982;51.474;7.228;2024-03-06T08:05:28;6.20;99.90
50969;DHT22;36982;51.474;7.228;2024-03-06T08:07:53;6.20;99.90
50969;DHT22;36982;51.474;7.228;2024-03-06T08:10:19;6.20;99.90
50969;DHT22;36982;51.474;7.228;2024-03-06T08:12:45;6.20;99.90
50969;DHT22;36982;51.474;7.228;2024-03-06T08:15:14;6.20;99.90
50969;DHT22;36982;51.474;7.228;2024-03-06T08:17:41;6.30;99.90
50969;DHT22;36982;51.474;7.228;2024-03-06T08:20:08;6.30;99.90
50969;DHT22;36982;51.474;7.228;2024-03-06T08:22:41;6.30;99.90
50969;DHT22;36982;51.474;7.228;2024-03-06T08:25:09;6.30;99.90
50969;DHT22;36982;51.474;7.228;2024-03-06T08:27:36;6.30;99.90
50969;DHT22;36982;51.474;7.228;2024-03-06T08:30:06;6.40;99.90
50969;DHT22;36982;51.474;7.228;2024-03-06T08:32:32;6.50;99.90
50969;DHT22;36982;51.474;7.228;2024-03-06T08:35:08;6.60;99.90
50969;DHT22;36982;51.474;7.228;2024-03-06T08:37:37;6.60;99.90
50969;DHT22;36982;51.474;7.228;2024-03-06T08:40:03;6.80;99.90
50969;DHT22;36982;51.474;7.228;2024-03-06T08:42:29;6.80;99.90
50969;DHT22;36982;51.474;7.228;2024-03-06T08:44:54;6.70;99.90
50969;DHT22;36982;51.474;7.228;2024-03-06T08:47:20;6.80;99.90
50969;DHT22;36982;51.474;7.228;2024-03-06T08:49:45;6.90;99.90
50969;DHT22;36982;51.474;7.228;2024-03-06T08:52:11;7.20;99.90
50969;DHT22;36982;51.474;7.228;2024-03-06T08:54:37;7.10;99.90
50969;DHT22;36982;51.474;7.228;2024-03-06T08:57:03;7.20;99.90
50969;DHT22;36982;51.474;7.228;2024-03-06T08:59:29;7.30;99.90
50969;DHT22;36982;51.474;7.228;2024-03-06T09:01:55;7.40;99.90
50969;DHT22;36982;51.474;7.228;2024-03-06T09:04:21;7.50;99.90
50969;DHT22;36982;51.474;7.228;2024-03-06T09:06:47;7.50;99.90
50969;DHT22;36982;51.474;7.228;2024-03-06T09:09:14;7.50;99.90
50969;DHT22;36982;51.474;7.228;2024-03-06T09:11:43;7.60;99.90
50969;DHT22;36982;51.474;7.228;2024-03-06T09:14:09;7.90;99.90
50969;DHT22;36982;51.474;7.228;2024-03-06T09:16:35;7.90;99.90
50969;DHT22;36982;51.474;7.228;2024-03-06T09:19:01;7.80;99.90
50969;DHT22;36982;51.474;7.228;2024-03-06T09:21:27;7.80;99.90
50969;DHT22;36982;51.474;7.228;2024-03-06T09:23:53;7.80;99.90
50969;DHT22;36982;51.474;7.228;2024-03-06T09:26:18;8.00;99.90
50969;DHT22;36982;51.474;7.228;2024-03-06T09:28:46;8.10;99.90
50969;DHT22;36982;51.474;7.228;2024-03-06T09:31:11;8.10;99.90
50969;DHT22;36982;51.474;7.228;2024-03-06T09:33:39;8.00;99.90
50969;DHT22;36982;51.474;7.228;2024-03-06T09:36:05;8.00;99.90
50969;DHT22;36982;51.474;7.228;2024-03-06T09:38:31;8.10;99.90
50969;DHT22;36982;51.474;7.228;2024-03-06T09:40:57;8.30;99.90
50969;DHT22;36982;51.474;7.228;2024-03-06T09:43:22;8.30;99.90
50969;DHT22;36982;51.474;7.228;2024-03-06T09:45:50;8.60;99.90
50969;DHT22;36982;51.474;7.228;2024-03-06T09:48:20;8.70;99.90
50969;DHT22;36982;51.474;7.228;2024-03-06T09:50:46;8.90;99.90
50969;DHT22;36982;51.474;7.228;2024-03-06T09:53:16;9.20;99.90
50969;DHT22;36982;51.474;7.228;2024-03-06T09:55:42;9.40;99.90
50969;DHT22;36982;51.474;7.228;2024-03-06T09:58:08;9.60;99.90
50969;DHT22;36982;51.474;7.228;2024-03-06T10:00:37;9.60;99.20
50969;DHT22;36982;51.474;7.228;2024-03-06T10:03:03;9.80;98.70
50969;DHT22;36982;51.474;7.228;2024-03-06T10:05:31;10.10;98.40
50969;DHT22;36982;51.474;7.228;2024-03-06T10:08:00;10.20;97.60
50969;DHT22;36982;51.474;7.228;2024-03-06T10:10:26;10.50;97.40
50969;DHT22;36982;51.474;7.228;2024-03-06T10:12:52;10.40;97.60
50969;DHT22;36982;51.474;7.228;2024-03-06T10:15:18;10.50;96.20
50969;DHT22;36982;51.474;7.228;2024-03-06T10:17:44;10.50;96.70
50969;DHT22;36982;51.474;7.228;2024-03-06T10:20:35;10.50;64.70
50969;DHT22;36982;51.474;7.228;2024-03-06T10:23:00;10.50;86.90
50969;DHT22;36982;51.474;7.228;2024-03-06T10:25:26;10.60;66.70
50969;DHT22;36982;51.474;7.228;2024-03-06T10:28:10;10.90;71.70
50969;DHT22;36982;51.474;7.228;2024-03-06T10:30:40;10.80;61.40
50969;DHT22;36982;51.474;7.228;2024-03-06T10:33:12;10.90;57.70
50969;DHT22;36982;51.474;7.228;2024-03-06T10:35:40;10.90;49.70
50969;DHT22;36982;51.474;7.228;2024-03-06T10:38:07;10.90;52.90
50969;DHT22;36982;51.474;7.228;2024-03-06T10:40:35;10.90;59.80
50969;DHT22;36982;51.474;7.228;2024-03-06T10:43:03;10.90;51.70
50969;DHT22;36982;51.474;7.228;2024-03-06T10:48:13;10.90;46.80
50969;DHT22;36982;51.474;7.228;2024-03-06T10:50:40;10.90;42.20
50969;DHT22;36982;51.474;7.228;2024-03-06T10:53:13;10.70;45.00
50969;DHT22;36982;51.474;7.228;2024-03-06T10:55:40;10.70;52.40
50969;DHT22;36982;51.474;7.228;2024-03-06T10:58:07;10.80;47.20
50969;DHT22;36982;51.474;7.228;2024-03-06T11:00:38;10.90;40.40
50969;DHT22;36982;51.474;7.228;2024-03-06T11:03:10;10.90;34.50
50969;DHT22;36982;51.474;7.228;2024-03-06T11:05:39;10.90;33.20
50969;DHT22;36982;51.474;7.228;2024-03-06T11:08:12;10.80;28.20
50969;DHT22;36982;51.474;7.228;2024-03-06T11:10:40;10.80;32.10
50969;DHT22;36982;51.474;7.228;2024-03-06T11:13:21;10.90;26.30
50969;DHT22;36982;51.474;7.228;2024-03-06T11:15:52;10.90;28.80
50969;DHT22;36982;51.474;7.228;2024-03-06T11:21:01;10.70;18.50
50969;DHT22;36982;51.474;7.228;2024-03-06T11:24:21;10.70;27.70
50969;DHT22;36982;51.474;7.228;2024-03-06T11:26:55;10.70;21.30
50969;DHT22;36982;51.474;7.228;2024-03-06T11:29:22;10.50;28.80
50969;DHT22;36982;51.474;7.228;2024-03-06T11:34:28;10.70;29.70
50969;DHT22;36982;51.474;7.228;2024-03-06T11:36:59;10.70;28.30
50969;DHT22;36982;51.474;7.228;2024-03-06T11:39:28;10.60;15.30
50969;DHT22;36982;51.474;7.228;2024-03-06T11:41:55;10.70;16.70
50969;DHT22;36982;51.474;7.228;2024-03-06T11:44:22;10.60;7.00
50969;DHT22;36982;51.474;7.228;2024-03-06T11:47:00;10.50;12.00
50969;DHT22;36982;51.474;7.228;2024-03-06T11:49:28;10.60;10.80
50969;DHT22;36982;51.474;7.228;2024-03-06T11:52:04;10.50;16.90
50969;DHT22;36982;51.474;7.228;2024-03-06T11:54:31;10.50;9.40
50969;DHT22;36982;51.474;7.228;2024-03-06T11:56:59;10.50;12.70
50969;DHT22;36982;51.474;7.228;2024-03-06T11:59:32;10.60;4.90
50969;DHT22;36982;51.474;7.228;2024-03-06T12:02:00;10.50;6.70
50969;DHT22;36982;51.474;7.228;2024-03-06T12:04:34;10.60;7.40
50969;DHT22;36982;51.474;7.228;2024-03-06T12:07:02;10.70;1.00
50969;DHT22;36982;51.474;7.228;2024-03-06T12:09:32;10.90;1.00
50969;DHT22;36982;51.474;7.228;2024-03-06T12:11:58;10.90;1.00
50969;DHT22;36982;51.474;7.228;2024-03-06T12:14:24;11.00;1.00
50969;DHT22;36982;51.474;7.228;2024-03-06T12:17:00;11.00;1.00
50969;DHT22;36982;51.474;7.228;2024-03-06T12:19:32;10.80;1.00
50969;DHT22;36982;51.474;7.228;2024-03-06T12:22:05;10.70;10.00
50969;DHT22;36982;51.474;7.228;2024-03-06T12:24:31;10.80;4.50
50969;DHT22;36982;51.474;7.228;2024-03-06T12:27:04;10.80;4.20
50969;DHT22;36982;51.474;7.228;2024-03-06T12:29:31;10.70;6.00
50969;DHT22;36982;51.474;7.228;2024-03-06T12:31:58;10.70;4.30
50969;DHT22;36982;51.474;7.228;2024-03-06T12:34:24;10.60;10.40
50969;DHT22;36982;51.474;7.228;2024-03-06T12:36:49;10.60;5.70
50969;DHT22;36982;51.474;7.228;2024-03-06T12:39:17;11.00;8.10
50969;DHT22;36982;51.474;7.228;2024-03-06T12:41:49;10.90;1.00
50969;DHT22;36982;51.474;7.228;2024-03-06T12:44:15;10.50;4.20
50969;DHT22;36982;51.474;7.228;2024-03-06T12:46:41;10.60;2.60
50969;DHT22;36982;51.474;7.228;2024-03-06T12:49:07;10.60;1.10
50969;DHT22;36982;51.474;7.228;2024-03-06T12:51:33;10.70;1.00
50969;DHT22;36982;51.474;7.228;2024-03-06T12:53:59;10.80;1.00
50969;DHT22;36982;51.474;7.228;2024-03-06T12:56:24;10.60;1.00
50969;DHT22;36982;51.474;7.228;2024-03-06T12:58:53;10.60;1.00
50969;DHT22;36982;51.474;7.228;2024-03-06T13:01:18;10.60;1.00
50969;DHT22;36982;51.474;7.228;2024-03-06T13:03:45;10.50;1.00
50969;DHT22;36982;51.474;7.228;2024-03-06T13:06:11;10.80;1.00
50969;DHT22;36982;51.474;7.228;2024-03-06T13:08:37;10.90;1.00
50969;DHT22;36982;51.474;7.228;2024-03-06T13:11:02;10.90;1.00
50969;DHT22;36982;51.474;7.228;2024-03-06T13:13:28;11.00;1.00
50969;DHT22;36982;51.474;7.228;2024-03-06T13:15:59;11.00;1.00
50969;DHT22;36982;51.474;7.228;2024-03-06T13:18:24;11.00;1.00
50969;DHT22;36982;51.474;7.228;2024-03-06T13:20:51;11.10;1.00
50969;DHT22;36982;51.474;7.228;2024-03-06T13:23:16;11.20;1.00
50969;DHT22;36982;51.474;7.228;2024-03-06T13:25:42;11.20;1.00
50969;DHT22;36982;51.474;7.228;2024-03-06T13:28:09;11.40;1.00
50969;DHT22;36982;51.474;7.228;2024-03-06T13:30:34;11.60;1.00
50969;DHT22;36982;51.474;7.228;2024-03-06T13:33:00;11.70;1.00
50969;DHT22;36982;51.474;7.228;2024-03-06T13:35:26;11.50;1.00
50969;DHT22;36982;51.474;7.228;2024-03-06T13:37:52;11.50;1.00
50969;DHT22;36982;51.474;7.228;2024-03-06T13:40:19;11.30;1.00
50969;DHT22;36982;51.474;7.228;2024-03-06T13:42:44;11.20;1.00
50969;DHT22;36982;51.474;7.228;2024-03-06T13:45:10;11.20;1.00
50969;DHT22;36982;51.474;7.228;2024-03-06T13:47:40;11.00;1.00
50969;DHT22;36982;51.474;7.228;2024-03-06T13:50:16;11.20;1.00
50969;DHT22;36982;51.474;7.228;2024-03-06T13:52:43;11.30;1.00
50969;DHT22;36982;51.474;7.228;2024-03-06T13:55:09;11.20;1.00
50969;DHT22;36982;51.474;7.228;2024-03-06T13:57:36;11.10;1.00
50969;DHT22;36982;51.474;7.228;2024-03-06T14:00:03;11.10;1.00
50969;DHT22;36982;51.474;7.228;2024-03-06T14:02:31;11.10;1.00
50969;DHT22;36982;51.474;7.228;2024-03-06T14:04:57;11.00;1.00
50969;DHT22;36982;51.474;7.228;2024-03-06T14:07:23;11.00;1.00
50969;DHT22;36982;51.474;7.228;2024-03-06T14:09:50;11.00;1.00
50969;DHT22;36982;51.474;7.228;2024-03-06T14:12:16;10.90;1.00
50969;DHT22;36982;51.474;7.228;2024-03-06T14:14:42;11.00;1.00
50969;DHT22;36982;51.474;7.228;2024-03-06T14:17:07;11.10;1.00
50969;DHT22;36982;51.474;7.228;2024-03-06T14:19:33;11.00;1.00
50969;DHT22;36982;51.474;7.228;2024-03-06T14:21:58;11.00;1.00
50969;DHT22;36982;51.474;7.228;2024-03-06T14:24:24;11.00;1.00
50969;DHT22;36982;51.474;7.228;2024-03-06T14:26:50;11.20;1.00
50969;DHT22;36982;51.474;7.228;2024-03-06T14:29:15;11.00;1.00
50969;DHT22;36982;51.474;7.228;2024-03-06T14:31:41;10.90;1.00
50969;DHT22;36982;51.474;7.228;2024-03-06T14:34:06;10.90;1.00
50969;DHT22;36982;51.474;7.228;2024-03-06T14:36:33;11.00;1.00
50969;DHT22;36982;51.474;7.228;2024-03-06T14:38:59;10.90;1.00
50969;DHT22;36982;51.474;7.228;2024-03-06T14:41:24;11.00;1.00
50969;DHT22;36982;51.474;7.228;2024-03-06T14:43:50;11.00;1.00
50969;DHT22;36982;51.474;7.228;2024-03-06T14:46:16;11.10;1.00
50969;DHT22;36982;51.474;7.228;2024-03-06T14:48:41;11.00;1.00
50969;DHT22;36982;51.474;7.228;2024-03-06T14:51:07;10.90;1.00
50969;DHT22;36982;51.474;7.228;2024-03-06T14:53:33;10.90;1.00
50969;DHT22;36982;51.474;7.228;2024-03-06T14:55:58;10.80;1.00
50969;DHT22;36982;51.474;7.228;2024-03-06T14:58:24;10.80;1.00
50969;DHT22;36982;51.474;7.228;2024-03-06T15:00:50;10.80;1.00
50969;DHT22;36982;51.474;7.228;2024-03-06T15:03:18;10.70;1.00
50969;DHT22;36982;51.474;7.228;2024-03-06T15:05:44;10.70;1.00
50969;DHT22;36982;51.474;7.228;2024-03-06T15:08:11;10.80;1.00
50969;DHT22;36982;51.474;7.228;2024-03-06T15:10:36;10.80;1.00
50969;DHT22;36982;51.474;7.228;2024-03-06T15:13:02;10.90;1.00
50969;DHT22;36982;51.474;7.228;2024-03-06T15:15:28;10.90;1.00
50969;DHT22;36982;51.474;7.228;2024-03-06T15:17:54;10.90;1.00
50969;DHT22;36982;51.474;7.228;2024-03-06T15:20:19;10.90;1.00
50969;DHT22;36982;51.474;7.228;2024-03-06T15:22:45;10.90;1.00
50969;DHT22;36982;51.474;7.228;2024-03-06T15:25:12;10.90;1.00
50969;DHT22;36982;51.474;7.228;2024-03-06T15:27:38;10.90;1.00
50969;DHT22;36982;51.474;7.228;2024-03-06T15:30:08;10.90;1.00
50969;DHT22;36982;51.474;7.228;2024-03-06T15:32:37;10.90;1.00
50969;DHT22;36982;51.474;7.228;2024-03-06T15:35:04;10.90;1.00
50969;DHT22;36982;51.474;7.228;2024-03-06T15:37:30;10.80;1.00
50969;DHT22;36982;51.474;7.228;2024-03-06T15:39:57;10.90;1.00
50969;DHT22;36982;51.474;7.228;2024-03-06T15:42:23;10.70;1.00
50969;DHT22;36982;51.474;7.228;2024-03-06T15:44:52;10.60;1.00
50969;DHT22;36982;51.474;7.228;2024-03-06T15:47:19;10.80;1.00
50969;DHT22;36982;51.474;7.228;2024-03-06T15:49:46;10.80;1.00
50969;DHT22;36982;51.474;7.228;2024-03-06T15:52:12;10.80;1.00
50969;DHT22;36982;51.474;7.228;2024-03-06T15:54:41;10.80;1.00